sensor_id;sensor_type;location;lat;lon;timestamp;P1;durP1;ratioP1;P2;durP2;ratioP2
60819;SDS011;46641;48.904;9.126;2024-01-15T00:03:45;16.73;;;8.43;;
60819;SDS011;46641;48.904;9.126;2024-01-15T00:08:35;15.88;;;8.32;;
60819;SDS011;46641;48.904;9.126;2024-01-15T00:13:26;14.32;;;8.60;;
60819;SDS011;46641;48.904;9.126;2024-01-15T00:18:16;14.97;;;6.83;;
60819;SDS011;46641;48.904;9.126;2024-01-15T00:23:06;15.10;;;7.82;;
60819;SDS011;46641;48.904;9.126;2024-01-15T00:27:56;18.45;;;10.70;;
60819;SDS011;46641;48.904;9.126;2024-01-15T00:32:47;12.35;;;6.88;;
60819;SDS011;46641;48.904;9.126;2024-01-15T00:37:37;17.27;;;9.60;;
60819;SDS011;46641;48.904;9.126;2024-01-15T00:42:27;15.40;;;8.60;;
60819;SDS011;46641;48.904;9.126;2024-01-15T00:47:18;17.30;;;8.82;;
60819;SDS011;46641;48.904;9.126;2024-01-15T00:52:09;12.70;;;7.57;;
60819;SDS011;46641;48.904;9.126;2024-01-15T00:56:59;13.43;;;8.35;;
60819;SDS011;46641;48.904;9.126;2024-01-15T01:01:49;19.37;;;8.80;;
60819;SDS011;46641;48.904;9.126;2024-01-15T01:06:39;18.85;;;11.05;;
60819;SDS011;46641;48.904;9.126;2024-01-15T01:11:30;17.50;;;10.50;;
60819;SDS011;46641;48.904;9.126;2024-01-15T01:16:20;19.13;;;10.50;;
60819;SDS011;46641;48.904;9.126;2024-01-15T01:21:10;18.27;;;9.50;;
60819;SDS011;46641;48.904;9.126;2024-01-15T01:26:01;17.42;;;10.00;;
60819;SDS011;46641;48.904;9.126;2024-01-15T01:30:51;17.95;;;10.57;;
60819;SDS011;46641;48.904;9.126;2024-01-15T01:35:41;20.00;;;10.93;;
60819;SDS011;46641;48.904;9.126;2024-01-15T01:40:32;17.20;;;10.00;;
60819;SDS011;46641;48.904;9.126;2024-01-15T01:45:22;14.47;;;9.07;;
60819;SDS011;46641;48.904;9.126;2024-01-15T01:50:12;16.67;;;9.50;;
60819;SDS011;46641;48.904;9.126;2024-01-15T01:55:04;15.20;;;8.63;;
60819;SDS011;46641;48.904;9.126;2024-01-15T01:59:56;15.13;;;8.00;;
60819;SDS011;46641;48.904;9.126;2024-01-15T02:04:48;11.53;;;6.50;;
60819;SDS011;46641;48.904;9.126;2024-01-15T02:09:39;14.17;;;7.70;;
60819;SDS011;46641;48.904;9.126;2024-01-15T02:14:31;10.90;;;6.80;;
60819;SDS011;46641;48.904;9.126;2024-01-15T02:19:21;14.43;;;7.23;;
60819;SDS011;46641;48.904;9.126;2024-01-15T02:24:12;9.73;;;5.95;;
60819;SDS011;46641;48.904;9.126;2024-01-15T02:29:02;11.00;;;6.83;;
60819;SDS011;46641;48.904;9.126;2024-01-15T02:33:54;10.63;;;6.20;;
60819;SDS011;46641;48.904;9.126;2024-01-15T02:38:44;13.63;;;6.80;;
60819;SDS011;46641;48.904;9.126;2024-01-15T02:43:35;10.45;;;6.35;;
60819;SDS011;46641;48.904;9.126;2024-01-15T02:48:25;8.52;;;6.30;;
60819;SDS011;46641;48.904;9.126;2024-01-15T02:53:15;12.13;;;6.97;;
60819;SDS011;46641;48.904;9.126;2024-01-15T02:58:05;12.02;;;7.22;;
60819;SDS011;46641;48.904;9.126;2024-01-15T03:02:57;11.93;;;6.70;;
60819;SDS011;46641;48.904;9.126;2024-01-15T03:07:48;13.07;;;8.13;;
60819;SDS011;46641;48.904;9.126;2024-01-15T03:12:38;12.80;;;6.47;;
60819;SDS011;46641;48.904;9.126;2024-01-15T03:17:29;12.97;;;7.90;;
60819;SDS011;46641;48.904;9.126;2024-01-15T03:22:19;14.23;;;7.67;;
60819;SDS011;46641;48.904;9.126;2024-01-15T03:27:09;11.00;;;6.77;;
60819;SDS011;46641;48.904;9.126;2024-01-15T03:32:00;11.80;;;7.03;;
60819;SDS011;46641;48.904;9.126;2024-01-15T03:36:50;13.37;;;7.83;;
60819;SDS011;46641;48.904;9.126;2024-01-15T03:41:40;14.30;;;6.53;;
60819;SDS011;46641;48.904;9.126;2024-01-15T03:46:30;9.47;;;6.60;;
60819;SDS011;46641;48.904;9.126;2024-01-15T03:51:22;9.30;;;6.40;;
60819;SDS011;46641;48.904;9.126;2024-01-15T03:56:13;12.00;;;7.10;;
60819;SDS011;46641;48.904;9.126;2024-01-15T04:01:06;10.47;;;6.67;;
60819;SDS011;46641;48.904;9.126;2024-01-15T04:05:58;9.77;;;5.40;;
60819;SDS011;46641;48.904;9.126;2024-01-15T04:10:49;10.40;;;6.10;;
60819;SDS011;46641;48.904;9.126;2024-01-15T04:15:39;7.88;;;5.70;;
60819;SDS011;46641;48.904;9.126;2024-01-15T04:20:29;7.53;;;4.82;;
60819;SDS011;46641;48.904;9.126;2024-01-15T04:25:19;7.32;;;5.18;;
60819;SDS011;46641;48.904;9.126;2024-01-15T04:30:10;7.70;;;4.63;;
60819;SDS011;46641;48.904;9.126;2024-01-15T04:35:00;5.97;;;4.27;;
60819;SDS011;46641;48.904;9.126;2024-01-15T04:39:51;8.55;;;4.78;;
60819;SDS011;46641;48.904;9.126;2024-01-15T04:44:44;9.67;;;6.10;;
60819;SDS011;46641;48.904;9.126;2024-01-15T04:49:35;6.23;;;4.73;;
60819;SDS011;46641;48.904;9.126;2024-01-15T04:54:25;8.30;;;5.32;;
60819;SDS011;46641;48.904;9.126;2024-01-15T04:59:15;6.88;;;5.10;;
60819;SDS011;46641;48.904;9.126;2024-01-15T05:04:06;6.35;;;4.60;;
60819;SDS011;46641;48.904;9.126;2024-01-15T05:08:56;7.55;;;4.70;;
60819;SDS011;46641;48.904;9.126;2024-01-15T05:13:46;7.75;;;4.78;;
60819;SDS011;46641;48.904;9.126;2024-01-15T05:18:36;11.67;;;5.03;;
60819;SDS011;46641;48.904;9.126;2024-01-15T05:23:27;6.13;;;4.20;;
60819;SDS011;46641;48.904;9.126;2024-01-15T05:28:17;6.17;;;4.37;;
60819;SDS011;46641;48.904;9.126;2024-01-15T05:33:08;7.90;;;4.10;;
60819;SDS011;46641;48.904;9.126;2024-01-15T05:37:58;6.80;;;4.50;;
60819;SDS011;46641;48.904;9.126;2024-01-15T05:42:49;5.73;;;4.50;;
60819;SDS011;46641;48.904;9.126;2024-01-15T05:47:39;3.70;;;3.27;;
60819;SDS011;46641;48.904;9.126;2024-01-15T05:52:29;5.77;;;4.17;;
60819;SDS011;46641;48.904;9.126;2024-01-15T05:57:20;6.67;;;3.80;;
60819;SDS011;46641;48.904;9.126;2024-01-15T06:02:10;4.65;;;3.47;;
60819;SDS011;46641;48.904;9.126;2024-01-15T06:07:01;6.20;;;3.70;;
60819;SDS011;46641;48.904;9.126;2024-01-15T06:11:51;4.73;;;3.47;;
60819;SDS011;46641;48.904;9.126;2024-01-15T06:16:41;7.20;;;4.40;;
60819;SDS011;46641;48.904;9.126;2024-01-15T06:21:32;5.47;;;3.60;;
60819;SDS011;46641;48.904;9.126;2024-01-15T06:26:22;14.13;;;9.65;;
60819;SDS011;46641;48.904;9.126;2024-01-15T06:31:13;10.90;;;7.17;;
60819;SDS011;46641;48.904;9.126;2024-01-15T06:36:03;11.60;;;8.77;;
60819;SDS011;46641;48.904;9.126;2024-01-15T06:40:54;12.70;;;8.00;;
60819;SDS011;46641;48.904;9.126;2024-01-15T06:45:44;10.00;;;6.07;;
60819;SDS011;46641;48.904;9.126;2024-01-15T06:50:35;11.20;;;6.00;;
60819;SDS011;46641;48.904;9.126;2024-01-15T06:55:25;10.60;;;6.70;;
60819;SDS011;46641;48.904;9.126;2024-01-15T07:00:16;9.50;;;6.00;;
60819;SDS011;46641;48.904;9.126;2024-01-15T07:05:06;9.73;;;6.60;;
60819;SDS011;46641;48.904;9.126;2024-01-15T07:09:57;10.57;;;6.50;;
60819;SDS011;46641;48.904;9.126;2024-01-15T07:14:47;8.80;;;5.20;;
60819;SDS011;46641;48.904;9.126;2024-01-15T07:19:37;8.17;;;5.37;;
60819;SDS011;46641;48.904;9.126;2024-01-15T07:24:28;9.13;;;5.07;;
60819;SDS011;46641;48.904;9.126;2024-01-15T07:29:18;7.93;;;5.47;;
60819;SDS011;46641;48.904;9.126;2024-01-15T07:34:08;9.30;;;5.20;;
60819;SDS011;46641;48.904;9.126;2024-01-15T07:38:59;9.15;;;5.22;;
60819;SDS011;46641;48.904;9.126;2024-01-15T07:43:49;6.00;;;4.32;;
60819;SDS011;46641;48.904;9.126;2024-01-15T07:48:40;9.27;;;5.17;;
60819;SDS011;46641;48.904;9.126;2024-01-15T07:53:30;6.70;;;4.87;;
60819;SDS011;46641;48.904;9.126;2024-01-15T07:58:20;5.72;;;4.90;;
60819;SDS011;46641;48.904;9.126;2024-01-15T08:03:11;6.00;;;4.75;;
60819;SDS011;46641;48.904;9.126;2024-01-15T08:08:02;7.30;;;4.23;;
60819;SDS011;46641;48.904;9.126;2024-01-15T08:12:52;7.40;;;4.60;;
60819;SDS011;46641;48.904;9.126;2024-01-15T08:17:43;6.10;;;3.30;;
60819;SDS011;46641;48.904;9.126;2024-01-15T08:22:33;8.40;;;5.37;;
60819;SDS011;46641;48.904;9.126;2024-01-15T08:27:23;8.00;;;4.50;;
60819;SDS011;46641;48.904;9.126;2024-01-15T08:32:14;6.72;;;4.78;;
60819;SDS011;46641;48.904;9.126;2024-01-15T08:37:05;5.10;;;4.17;;
60819;SDS011;46641;48.904;9.126;2024-01-15T08:41:55;6.40;;;4.87;;
60819;SDS011;46641;48.904;9.126;2024-01-15T08:46:45;5.82;;;4.45;;
60819;SDS011;46641;48.904;9.126;2024-01-15T08:51:36;8.57;;;5.32;;
60819;SDS011;46641;48.904;9.126;2024-01-15T08:56:26;6.32;;;4.30;;
60819;SDS011;46641;48.904;9.126;2024-01-15T09:01:17;5.43;;;3.83;;
60819;SDS011;46641;48.904;9.126;2024-01-15T09:06:07;6.43;;;5.03;;
60819;SDS011;46641;48.904;9.126;2024-01-15T09:10:59;5.00;;;3.50;;
60819;SDS011;46641;48.904;9.126;2024-01-15T09:15:52;8.73;;;6.28;;
60819;SDS011;46641;48.904;9.126;2024-01-15T09:20:43;7.37;;;4.13;;
60819;SDS011;46641;48.904;9.126;2024-01-15T09:25:33;4.83;;;4.17;;
60819;SDS011;46641;48.904;9.126;2024-01-15T09:30:23;4.97;;;3.63;;
60819;SDS011;46641;48.904;9.126;2024-01-15T09:35:14;4.00;;;3.60;;
60819;SDS011;46641;48.904;9.126;2024-01-15T09:40:05;5.30;;;3.83;;
60819;SDS011;46641;48.904;9.126;2024-01-15T09:44:58;3.67;;;3.27;;
60819;SDS011;46641;48.904;9.126;2024-01-15T09:49:48;3.87;;;3.07;;
60819;SDS011;46641;48.904;9.126;2024-01-15T09:54:39;4.70;;;3.67;;
60819;SDS011;46641;48.904;9.126;2024-01-15T09:59:30;5.87;;;3.83;;
60819;SDS011;46641;48.904;9.126;2024-01-15T10:04:21;4.83;;;3.67;;
60819;SDS011;46641;48.904;9.126;2024-01-15T10:09:14;4.80;;;3.30;;
60819;SDS011;46641;48.904;9.126;2024-01-15T10:14:05;3.70;;;3.20;;
60819;SDS011;46641;48.904;9.126;2024-01-15T10:18:56;4.37;;;3.27;;
60819;SDS011;46641;48.904;9.126;2024-01-15T10:23:46;5.80;;;3.10;;
60819;SDS011;46641;48.904;9.126;2024-01-15T10:28:36;6.20;;;3.87;;
60819;SDS011;46641;48.904;9.126;2024-01-15T10:33:27;5.35;;;3.28;;
60819;SDS011;46641;48.904;9.126;2024-01-15T10:38:17;4.70;;;3.20;;
60819;SDS011;46641;48.904;9.126;2024-01-15T10:43:12;4.63;;;3.37;;
60819;SDS011;46641;48.904;9.126;2024-01-15T10:48:02;3.87;;;3.43;;
60819;SDS011;46641;48.904;9.126;2024-01-15T10:52:54;3.93;;;3.37;;
60819;SDS011;46641;48.904;9.126;2024-01-15T10:57:45;3.63;;;2.90;;
60819;SDS011;46641;48.904;9.126;2024-01-15T11:02:38;6.73;;;4.10;;
60819;SDS011;46641;48.904;9.126;2024-01-15T11:07:29;5.33;;;3.73;;
60819;SDS011;46641;48.904;9.126;2024-01-15T11:12:20;4.37;;;3.37;;
60819;SDS011;46641;48.904;9.126;2024-01-15T11:17:11;3.15;;;2.75;;
60819;SDS011;46641;48.904;9.126;2024-01-15T11:22:03;4.63;;;3.67;;
60819;SDS011;46641;48.904;9.126;2024-01-15T11:26:56;4.90;;;3.20;;
60819;SDS011;46641;48.904;9.126;2024-01-15T11:41:39;4.73;;;3.40;;
60819;SDS011;46641;48.904;9.126;2024-01-15T11:46:30;4.77;;;2.93;;
60819;SDS011;46641;48.904;9.126;2024-01-15T11:51:28;5.83;;;3.80;;
60819;SDS011;46641;48.904;9.126;2024-01-15T11:56:19;4.40;;;3.33;;
60819;SDS011;46641;48.904;9.126;2024-01-15T12:01:13;3.37;;;2.77;;
60819;SDS011;46641;48.904;9.126;2024-01-15T12:06:08;6.67;;;4.97;;
60819;SDS011;46641;48.904;9.126;2024-01-15T12:11:00;6.70;;;4.53;;
60819;SDS011;46641;48.904;9.126;2024-01-15T12:15:51;5.40;;;3.57;;
60819;SDS011;46641;48.904;9.126;2024-01-15T12:20:41;5.43;;;3.73;;
60819;SDS011;46641;48.904;9.126;2024-01-15T12:25:33;5.33;;;3.70;;
60819;SDS011;46641;48.904;9.126;2024-01-15T12:30:25;5.53;;;3.30;;
60819;SDS011;46641;48.904;9.126;2024-01-15T12:35:18;3.97;;;3.40;;
60819;SDS011;46641;48.904;9.126;2024-01-15T12:40:10;3.20;;;2.90;;
60819;SDS011;46641;48.904;9.126;2024-01-15T12:45:00;5.37;;;3.60;;
60819;SDS011;46641;48.904;9.126;2024-01-15T12:49:54;4.07;;;3.00;;
60819;SDS011;46641;48.904;9.126;2024-01-15T12:54:45;6.30;;;2.83;;
60819;SDS011;46641;48.904;9.126;2024-01-15T12:59:35;2.60;;;2.40;;
60819;SDS011;46641;48.904;9.126;2024-01-15T13:04:25;2.90;;;2.40;;
60819;SDS011;46641;48.904;9.126;2024-01-15T13:09:16;3.30;;;2.90;;
60819;SDS011;46641;48.904;9.126;2024-01-15T13:14:07;3.83;;;3.30;;
60819;SDS011;46641;48.904;9.126;2024-01-15T13:18:57;3.90;;;3.27;;
60819;SDS011;46641;48.904;9.126;2024-01-15T13:23:48;4.00;;;3.43;;
60819;SDS011;46641;48.904;9.126;2024-01-15T13:28:39;3.63;;;3.07;;
60819;SDS011;46641;48.904;9.126;2024-01-15T13:33:29;3.47;;;3.05;;
60819;SDS011;46641;48.904;9.126;2024-01-15T13:38:20;4.33;;;3.03;;
60819;SDS011;46641;48.904;9.126;2024-01-15T13:43:11;3.87;;;3.30;;
60819;SDS011;46641;48.904;9.126;2024-01-15T13:48:01;4.60;;;3.80;;
60819;SDS011;46641;48.904;9.126;2024-01-15T13:52:55;4.53;;;4.13;;
60819;SDS011;46641;48.904;9.126;2024-01-15T13:57:45;5.17;;;4.30;;
60819;SDS011;46641;48.904;9.126;2024-01-15T14:02:36;4.80;;;4.30;;
60819;SDS011;46641;48.904;9.126;2024-01-15T14:07:26;4.60;;;4.07;;
60819;SDS011;46641;48.904;9.126;2024-01-15T14:12:16;6.65;;;4.80;;
60819;SDS011;46641;48.904;9.126;2024-01-15T14:17:07;5.83;;;4.00;;
60819;SDS011;46641;48.904;9.126;2024-01-15T14:21:57;7.83;;;5.23;;
60819;SDS011;46641;48.904;9.126;2024-01-15T14:26:47;6.70;;;5.20;;
60819;SDS011;46641;48.904;9.126;2024-01-15T14:31:38;6.60;;;5.27;;
60819;SDS011;46641;48.904;9.126;2024-01-15T14:36:29;6.27;;;4.70;;
60819;SDS011;46641;48.904;9.126;2024-01-15T14:41:20;7.33;;;5.40;;
60819;SDS011;46641;48.904;9.126;2024-01-15T14:46:10;6.03;;;5.20;;
60819;SDS011;46641;48.904;9.126;2024-01-15T14:51:01;6.37;;;4.80;;
60819;SDS011;46641;48.904;9.126;2024-01-15T14:55:53;8.13;;;5.23;;
60819;SDS011;46641;48.904;9.126;2024-01-15T15:00:44;6.53;;;5.83;;
60819;SDS011;46641;48.904;9.126;2024-01-15T15:05:36;7.73;;;5.57;;
60819;SDS011;46641;48.904;9.126;2024-01-15T15:10:26;7.93;;;6.20;;
60819;SDS011;46641;48.904;9.126;2024-01-15T15:15:16;6.70;;;5.97;;
60819;SDS011;46641;48.904;9.126;2024-01-15T15:20:08;7.97;;;6.10;;
60819;SDS011;46641;48.904;9.126;2024-01-15T15:24:58;7.20;;;6.20;;
60819;SDS011;46641;48.904;9.126;2024-01-15T15:29:49;9.10;;;6.30;;
60819;SDS011;46641;48.904;9.126;2024-01-15T15:34:40;6.00;;;5.40;;
60819;SDS011;46641;48.904;9.126;2024-01-15T15:39:30;7.10;;;5.68;;
60819;SDS011;46641;48.904;9.126;2024-01-15T15:44:21;7.88;;;5.65;;
60819;SDS011;46641;48.904;9.126;2024-01-15T15:49:11;7.07;;;5.50;;
60819;SDS011;46641;48.904;9.126;2024-01-15T15:54:01;6.57;;;4.87;;
60819;SDS011;46641;48.904;9.126;2024-01-15T15:58:52;6.57;;;5.50;;
60819;SDS011;46641;48.904;9.126;2024-01-15T16:03:42;6.20;;;5.43;;
60819;SDS011;46641;48.904;9.126;2024-01-15T16:08:33;8.00;;;5.67;;
60819;SDS011;46641;48.904;9.126;2024-01-15T16:13:23;8.67;;;5.50;;
60819;SDS011;46641;48.904;9.126;2024-01-15T16:18:14;9.90;;;5.70;;
60819;SDS011;46641;48.904;9.126;2024-01-15T16:23:04;7.67;;;5.77;;
60819;SDS011;46641;48.904;9.126;2024-01-15T16:27:54;5.65;;;4.25;;
60819;SDS011;46641;48.904;9.126;2024-01-15T16:32:45;8.93;;;5.70;;
60819;SDS011;46641;48.904;9.126;2024-01-15T16:37:35;7.15;;;5.15;;
60819;SDS011;46641;48.904;9.126;2024-01-15T16:42:26;8.17;;;6.97;;
60819;SDS011;46641;48.904;9.126;2024-01-15T16:47:16;7.80;;;7.00;;
60819;SDS011;46641;48.904;9.126;2024-01-15T16:52:06;8.13;;;6.93;;
60819;SDS011;46641;48.904;9.126;2024-01-15T16:56:57;7.70;;;5.33;;
60819;SDS011;46641;48.904;9.126;2024-01-15T17:01:47;8.25;;;7.05;;
60819;SDS011;46641;48.904;9.126;2024-01-15T17:06:37;7.37;;;6.10;;
60819;SDS011;46641;48.904;9.126;2024-01-15T17:11:27;7.45;;;5.97;;
60819;SDS011;46641;48.904;9.126;2024-01-15T17:16:18;7.43;;;5.33;;
60819;SDS011;46641;48.904;9.126;2024-01-15T17:21:08;6.93;;;5.97;;
60819;SDS011;46641;48.904;9.126;2024-01-15T17:25:58;7.07;;;5.73;;
60819;SDS011;46641;48.904;9.126;2024-01-15T17:30:49;6.37;;;5.23;;
60819;SDS011;46641;48.904;9.126;2024-01-15T17:35:39;7.17;;;5.07;;
60819;SDS011;46641;48.904;9.126;2024-01-15T17:40:29;6.43;;;5.17;;
60819;SDS011;46641;48.904;9.126;2024-01-15T17:45:20;7.73;;;4.60;;
60819;SDS011;46641;48.904;9.126;2024-01-15T17:50:11;7.60;;;5.10;;
60819;SDS011;46641;48.904;9.126;2024-01-15T17:55:01;7.83;;;5.20;;
60819;SDS011;46641;48.904;9.126;2024-01-15T17:59:51;6.53;;;5.17;;
60819;SDS011;46641;48.904;9.126;2024-01-15T18:04:42;6.17;;;5.13;;
60819;SDS011;46641;48.904;9.126;2024-01-15T18:09:32;5.67;;;5.03;;
60819;SDS011;46641;48.904;9.126;2024-01-15T18:14:22;7.17;;;4.03;;
60819;SDS011;46641;48.904;9.126;2024-01-15T18:19:13;6.23;;;4.17;;
60819;SDS011;46641;48.904;9.126;2024-01-15T18:24:03;6.77;;;5.23;;
60819;SDS011;46641;48.904;9.126;2024-01-15T18:28:54;4.30;;;3.47;;
60819;SDS011;46641;48.904;9.126;2024-01-15T18:33:45;6.67;;;5.13;;
60819;SDS011;46641;48.904;9.126;2024-01-15T18:38:35;4.73;;;4.10;;
60819;SDS011;46641;48.904;9.126;2024-01-15T18:43:27;4.27;;;3.10;;
60819;SDS011;46641;48.904;9.126;2024-01-15T18:48:19;5.77;;;3.97;;
60819;SDS011;46641;48.904;9.126;2024-01-15T18:53:09;4.57;;;3.80;;
60819;SDS011;46641;48.904;9.126;2024-01-15T18:57:59;4.73;;;3.73;;
60819;SDS011;46641;48.904;9.126;2024-01-15T19:02:50;3.63;;;3.30;;
60819;SDS011;46641;48.904;9.126;2024-01-15T19:07:41;4.27;;;3.13;;
60819;SDS011;46641;48.904;9.126;2024-01-15T19:12:35;4.10;;;3.20;;
60819;SDS011;46641;48.904;9.126;2024-01-15T19:17:25;4.07;;;3.47;;
60819;SDS011;46641;48.904;9.126;2024-01-15T19:22:16;4.45;;;3.35;;
60819;SDS011;46641;48.904;9.126;2024-01-15T19:27:08;5.17;;;3.57;;
60819;SDS011;46641;48.904;9.126;2024-01-15T19:31:58;4.37;;;3.53;;
60819;SDS011;46641;48.904;9.126;2024-01-15T19:36:50;3.70;;;3.33;;
60819;SDS011;46641;48.904;9.126;2024-01-15T19:41:41;4.80;;;4.30;;
60819;SDS011;46641;48.904;9.126;2024-01-15T19:46:31;4.53;;;3.53;;
60819;SDS011;46641;48.904;9.126;2024-01-15T19:51:24;5.33;;;3.70;;
60819;SDS011;46641;48.904;9.126;2024-01-15T19:56:14;3.60;;;3.30;;
60819;SDS011;46641;48.904;9.126;2024-01-15T20:01:07;3.00;;;2.70;;
60819;SDS011;46641;48.904;9.126;2024-01-15T20:05:57;3.05;;;2.58;;
60819;SDS011;46641;48.904;9.126;2024-01-15T20:10:47;6.33;;;3.40;;
60819;SDS011;46641;48.904;9.126;2024-01-15T20:15:37;4.95;;;3.05;;
60819;SDS011;46641;48.904;9.126;2024-01-15T20:20:28;5.30;;;3.40;;
60819;SDS011;46641;48.904;9.126;2024-01-15T20:25:18;3.63;;;2.83;;
60819;SDS011;46641;48.904;9.126;2024-01-15T20:30:09;3.37;;;3.03;;
60819;SDS011;46641;48.904;9.126;2024-01-15T20:35:00;2.90;;;2.50;;
60819;SDS011;46641;48.904;9.126;2024-01-15T20:39:50;4.53;;;2.87;;
60819;SDS011;46641;48.904;9.126;2024-01-15T20:44:40;4.53;;;3.13;;
60819;SDS011;46641;48.904;9.126;2024-01-15T20:49:30;6.32;;;2.90;;
60819;SDS011;46641;48.904;9.126;2024-01-15T20:54:21;3.20;;;2.90;;
60819;SDS011;46641;48.904;9.126;2024-01-15T20:59:11;4.93;;;3.25;;
60819;SDS011;46641;48.904;9.126;2024-01-15T21:04:01;4.18;;;2.90;;
60819;SDS011;46641;48.904;9.126;2024-01-15T21:08:51;2.67;;;2.35;;
60819;SDS011;46641;48.904;9.126;2024-01-15T21:13:42;2.92;;;2.63;;
60819;SDS011;46641;48.904;9.126;2024-01-15T21:18:32;3.53;;;2.57;;
60819;SDS011;46641;48.904;9.126;2024-01-15T21:23:22;6.17;;;3.70;;
60819;SDS011;46641;48.904;9.126;2024-01-15T21:28:13;5.40;;;3.20;;
60819;SDS011;46641;48.904;9.126;2024-01-15T21:33:04;2.47;;;2.27;;
60819;SDS011;46641;48.904;9.126;2024-01-15T21:37:54;4.33;;;3.33;;
60819;SDS011;46641;48.904;9.126;2024-01-15T21:42:45;4.30;;;3.42;;
60819;SDS011;46641;48.904;9.126;2024-01-15T21:47:38;3.78;;;2.80;;
60819;SDS011;46641;48.904;9.126;2024-01-15T21:52:28;4.33;;;3.03;;
60819;SDS011;46641;48.904;9.126;2024-01-15T21:57:19;2.93;;;2.73;;
60819;SDS011;46641;48.904;9.126;2024-01-15T22:02:09;4.07;;;2.75;;
60819;SDS011;46641;48.904;9.126;2024-01-15T22:06:59;4.07;;;2.60;;
60819;SDS011;46641;48.904;9.126;2024-01-15T22:11:50;4.00;;;3.20;;
60819;SDS011;46641;48.904;9.126;2024-01-15T22:16:41;3.87;;;2.83;;
60819;SDS011;46641;48.904;9.126;2024-01-15T22:21:31;4.93;;;3.10;;
60819;SDS011;46641;48.904;9.126;2024-01-15T22:26:21;3.50;;;2.93;;
60819;SDS011;46641;48.904;9.126;2024-01-15T22:31:12;4.20;;;3.08;;
60819;SDS011;46641;48.904;9.126;2024-01-15T22:36:03;3.03;;;2.83;;
60819;SDS011;46641;48.904;9.126;2024-01-15T22:40:53;5.27;;;3.23;;
60819;SDS011;46641;48.904;9.126;2024-01-15T22:45:43;4.60;;;3.60;;
60819;SDS011;46641;48.904;9.126;2024-01-15T22:50:34;3.45;;;3.15;;
60819;SDS011;46641;48.904;9.126;2024-01-15T22:55:24;4.65;;;3.13;;
60819;SDS011;46641;48.904;9.126;2024-01-15T23:00:14;4.05;;;3.28;;
60819;SDS011;46641;48.904;9.126;2024-01-15T23:05:13;4.03;;;3.20;;
60819;SDS011;46641;48.904;9.126;2024-01-15T23:10:05;6.17;;;2.90;;
60819;SDS011;46641;48.904;9.126;2024-01-15T23:14:58;3.53;;;3.20;;
60819;SDS011;46641;48.904;9.126;2024-01-15T23:19:48;3.45;;;3.17;;
60819;SDS011;46641;48.904;9.126;2024-01-15T23:24:38;3.03;;;2.78;;
60819;SDS011;46641;48.904;9.126;2024-01-15T23:29:30;2.90;;;2.67;;
60819;SDS011;46641;48.904;9.126;2024-01-15T23:34:20;5.60;;;2.70;;
60819;SDS011;46641;48.904;9.126;2024-01-15T23:39:10;5.82;;;3.95;;
60819;SDS011;46641;48.904;9.126;2024-01-15T23:44:00;3.50;;;2.90;;
60819;SDS011;46641;48.904;9.126;2024-01-15T23:48:54;3.87;;;3.57;;
60819;SDS011;46641;48.904;9.126;2024-01-15T23:53:44;3.60;;;3.30;;
60819;SDS011;46641;48.904;9.126;2024-01-15T23:58:34;4.45;;;3.80;;
